createdAt,value
2017-06-27T00:00:05.640Z,19.70
2017-06-27T00:02:33.929Z,19.70
2017-06-27T00:05:02.459Z,19.70
2017-06-27T00:07:30.752Z,19.70
2017-06-27T00:09:59.024Z,19.70
2017-06-27T00:12:27.339Z,19.70
2017-06-27T00:14:55.616Z,19.70
2017-06-27T00:17:23.888Z,19.70
2017-06-27T00:19:52.220Z,19.60
2017-06-27T00:22:20.508Z,19.60
2017-06-27T00:24:48.786Z,19.50
2017-06-27T00:27:17.516Z,19.60
2017-06-27T00:29:45.878Z,19.70
2017-06-27T00:32:14.188Z,19.60
2017-06-27T00:34:42.556Z,19.40
2017-06-27T00:37:11.604Z,19.40
2017-06-27T00:39:39.879Z,19.30
2017-06-27T00:42:08.192Z,19.40
2017-06-27T00:44:36.480Z,19.40
2017-06-27T00:47:04.843Z,19.30
2017-06-27T00:49:33.170Z,19.20
2017-06-27T00:52:03.906Z,19.10
2017-06-27T00:54:32.199Z,19.00
2017-06-27T00:57:00.512Z,19.10
2017-06-27T00:59:29.555Z,19.40
2017-06-27T01:01:57.871Z,19.30
2017-06-27T01:04:26.156Z,19.30
2017-06-27T01:06:54.429Z,19.20
2017-06-27T01:09:22.740Z,19.20
2017-06-27T01:11:51.085Z,19.20
2017-06-27T01:14:23.035Z,19.10
2017-06-27T01:16:52.212Z,19.20
2017-06-27T01:19:20.500Z,19.10
2017-06-27T01:21:48.847Z,19.30
2017-06-27T01:24:17.888Z,19.30
2017-06-27T01:26:46.163Z,19.20
2017-06-27T01:29:14.475Z,19.20
2017-06-27T01:31:42.777Z,19.20
2017-06-27T01:34:11.054Z,19.20
2017-06-27T01:36:39.532Z,19.00
2017-06-27T01:39:07.843Z,18.90
2017-06-27T01:41:36.130Z,18.90
2017-06-27T01:44:04.489Z,18.90
2017-06-27T01:46:32.775Z,18.80
2017-06-27T01:49:01.832Z,19.00
2017-06-27T01:51:30.180Z,18.90
2017-06-27T01:53:58.456Z,19.00
2017-06-27T01:56:27.230Z,19.00
2017-06-27T01:58:56.345Z,18.90
2017-06-27T02:01:25.371Z,18.90
2017-06-27T02:03:53.639Z,18.80
2017-06-27T02:06:21.960Z,18.90
2017-06-27T02:08:50.242Z,18.90
2017-06-27T02:11:18.520Z,18.90
2017-06-27T02:13:46.820Z,18.90
2017-06-27T02:16:15.871Z,18.90
2017-06-27T02:18:44.159Z,18.90
2017-06-27T02:21:14.168Z,19.00
2017-06-27T02:23:43.220Z,19.20
2017-06-27T02:26:11.493Z,19.10
2017-06-27T02:28:39.808Z,19.20
2017-06-27T02:31:08.241Z,19.00
2017-06-27T02:33:37.280Z,18.90
2017-06-27T02:36:05.596Z,18.80
2017-06-27T02:38:33.877Z,18.80
2017-06-27T02:41:02.156Z,18.80
2017-06-27T02:43:30.460Z,18.90
2017-06-27T02:45:59.499Z,19.00
2017-06-27T02:48:27.788Z,18.90
2017-06-27T02:50:56.275Z,18.80
2017-06-27T02:53:25.379Z,18.70
2017-06-27T02:55:53.672Z,18.70
2017-06-27T02:58:21.987Z,18.80
2017-06-27T03:00:50.342Z,18.90
2017-06-27T03:03:19.389Z,19.10
2017-06-27T03:05:47.724Z,19.00
2017-06-27T03:08:15.997Z,19.00
2017-06-27T03:10:44.280Z,19.10
2017-06-27T03:13:12.583Z,19.10
2017-06-27T03:15:40.877Z,19.10
2017-06-27T03:18:09.151Z,19.10
2017-06-27T03:20:37.924Z,19.10
2017-06-27T03:23:06.188Z,18.90
2017-06-27T03:25:34.544Z,18.90
2017-06-27T03:28:02.864Z,18.90
2017-06-27T03:30:31.283Z,18.90
2017-06-27T03:32:59.563Z,18.80
2017-06-27T03:35:27.956Z,18.70
2017-06-27T03:37:56.236Z,18.70
2017-06-27T03:40:24.584Z,18.80
2017-06-27T03:42:53.388Z,18.90
2017-06-27T03:45:21.674Z,19.00
2017-06-27T03:47:49.956Z,18.80
2017-06-27T03:50:19.050Z,19.00
2017-06-27T03:52:48.080Z,19.10
2017-06-27T03:55:17.148Z,19.00
2017-06-27T03:57:45.573Z,19.00
2017-06-27T04:00:13.876Z,19.10
2017-06-27T04:02:42.151Z,19.10
2017-06-27T04:05:10.469Z,18.90
2017-06-27T04:07:38.747Z,18.90
2017-06-27T04:10:07.024Z,18.80
2017-06-27T04:12:35.333Z,18.80
2017-06-27T04:15:04.380Z,18.70
2017-06-27T04:17:32.654Z,18.60
2017-06-27T04:20:00.964Z,18.80
2017-06-27T04:22:29.249Z,19.00
2017-06-27T04:24:57.527Z,18.90
2017-06-27T04:27:25.862Z,18.80
2017-06-27T04:29:54.152Z,18.60
2017-06-27T04:32:22.427Z,18.50
2017-06-27T04:34:51.525Z,18.60
2017-06-27T04:37:19.808Z,18.50
2017-06-27T04:39:48.084Z,18.40
2017-06-27T04:42:16.512Z,18.30
2017-06-27T04:44:45.556Z,18.10
2017-06-27T04:47:13.831Z,18.00
2017-06-27T04:49:42.312Z,18.10
2017-06-27T04:52:11.392Z,18.10
2017-06-27T04:54:39.657Z,18.10
2017-06-27T04:57:08.735Z,17.80
2017-06-27T04:59:37.771Z,17.90
2017-06-27T05:02:06.048Z,17.80
2017-06-27T05:04:34.359Z,18.00
2017-06-27T05:07:02.643Z,18.00
2017-06-27T05:09:30.920Z,18.00
2017-06-27T05:11:59.240Z,18.00
2017-06-27T05:14:27.523Z,17.90
2017-06-27T05:16:55.801Z,17.80
2017-06-27T05:19:24.119Z,17.90
2017-06-27T05:21:52.395Z,17.90
2017-06-27T05:24:20.676Z,18.00
2017-06-27T05:26:48.999Z,18.20
2017-06-27T05:29:18.045Z,18.10
2017-06-27T05:31:46.308Z,18.00
2017-06-27T05:34:14.615Z,18.30
2017-06-27T05:36:42.904Z,18.70
2017-06-27T05:39:11.223Z,19.10
2017-06-27T05:41:40.302Z,19.00
2017-06-27T05:44:09.350Z,19.00
2017-06-27T05:46:37.711Z,18.90
2017-06-27T05:49:06.165Z,19.20
2017-06-27T05:51:34.447Z,19.40
2017-06-27T05:54:03.760Z,19.30
2017-06-27T05:56:33.037Z,19.30
2017-06-27T05:59:02.077Z,19.30
2017-06-27T06:01:30.353Z,19.30
2017-06-27T06:03:58.667Z,19.30
2017-06-27T06:06:26.939Z,19.10
2017-06-27T06:08:55.220Z,19.20
2017-06-27T06:11:23.544Z,19.10
2017-06-27T06:13:52.024Z,19.30
2017-06-27T06:16:20.304Z,19.20
2017-06-27T06:18:48.621Z,19.20
2017-06-27T06:21:17.816Z,19.10
2017-06-27T06:23:47.668Z,19.10
2017-06-27T06:26:15.994Z,19.10
2017-06-27T06:28:44.276Z,19.30
2017-06-27T06:31:12.584Z,19.70
2017-06-27T06:33:41.624Z,19.50
2017-06-27T06:36:09.895Z,19.50
2017-06-27T06:38:38.389Z,19.70
2017-06-27T06:41:07.445Z,19.70
2017-06-27T06:43:35.716Z,19.70
2017-06-27T06:46:04.036Z,19.70
2017-06-27T06:48:32.315Z,19.70
2017-06-27T06:51:00.593Z,19.40
2017-06-27T06:53:28.913Z,19.40
2017-06-27T06:55:57.199Z,19.30
2017-06-27T06:58:25.475Z,19.20
2017-06-27T07:00:53.820Z,19.20
2017-06-27T07:03:22.095Z,19.10
2017-06-27T07:05:50.377Z,19.10
2017-06-27T07:08:19.563Z,18.90
2017-06-27T07:10:48.616Z,18.70
2017-06-27T07:13:16.896Z,18.70
2017-06-27T07:15:45.980Z,18.70
2017-06-27T07:18:15.024Z,18.70
2017-06-27T07:20:43.304Z,18.70
2017-06-27T07:23:11.794Z,18.80
2017-06-27T07:25:40.827Z,18.80
2017-06-27T07:28:10.288Z,18.80
2017-06-27T07:30:38.600Z,18.70
2017-06-27T07:33:06.876Z,18.70
2017-06-27T07:35:35.924Z,18.80
2017-06-27T07:38:04.238Z,18.70
2017-06-27T07:40:32.508Z,18.80
2017-06-27T07:43:00.788Z,18.90
2017-06-27T07:45:29.121Z,19.00
2017-06-27T07:47:57.412Z,19.20
2017-06-27T07:50:25.687Z,19.30
2017-06-27T07:52:54.007Z,19.30
2017-06-27T07:55:22.300Z,19.40
2017-06-27T07:57:50.595Z,19.40
2017-06-27T08:00:19.100Z,19.40
2017-06-27T08:02:48.132Z,19.60
2017-06-27T08:05:16.415Z,19.60
2017-06-27T08:07:45.499Z,19.90
2017-06-27T08:10:14.542Z,20.00
2017-06-27T08:12:42.816Z,19.90
2017-06-27T08:15:11.145Z,20.00
2017-06-27T08:17:39.407Z,20.10
2017-06-27T08:20:07.684Z,20.30
2017-06-27T08:22:36.192Z,20.40
2017-06-27T08:25:05.232Z,20.40
2017-06-27T08:27:33.511Z,20.40
2017-06-27T08:30:01.816Z,20.50
2017-06-27T08:32:30.116Z,20.50
2017-06-27T08:34:58.407Z,20.50
2017-06-27T08:37:27.604Z,21.00
2017-06-27T08:39:56.654Z,21.30
2017-06-27T08:42:25.724Z,21.60
2017-06-27T08:44:54.204Z,21.60
2017-06-27T08:47:22.498Z,21.70
2017-06-27T08:49:50.791Z,21.60
2017-06-27T08:52:19.124Z,21.60
2017-06-27T08:54:47.405Z,21.30
2017-06-27T08:57:15.675Z,21.30
2017-06-27T08:59:44.200Z,21.40
2017-06-27T09:02:13.245Z,21.60
2017-06-27T09:04:41.528Z,21.60
2017-06-27T09:07:09.843Z,21.70
2017-06-27T09:09:38.115Z,21.90
2017-06-27T09:12:06.392Z,22.00
2017-06-27T09:14:34.900Z,22.00
2017-06-27T09:17:03.936Z,22.00
2017-06-27T09:19:32.212Z,21.90
2017-06-27T09:22:00.705Z,22.20
2017-06-27T09:24:29.736Z,22.30
2017-06-27T09:26:58.041Z,22.20
2017-06-27T09:29:27.095Z,22.50
2017-06-27T09:31:55.485Z,22.40
2017-06-27T09:34:24.523Z,22.40
2017-06-27T09:36:53.859Z,22.40
2017-06-27T09:39:22.139Z,22.20
2017-06-27T09:41:50.424Z,22.20
2017-06-27T09:44:18.734Z,22.40
2017-06-27T09:46:47.780Z,22.70
2017-06-27T09:49:16.061Z,22.60
2017-06-27T09:51:44.380Z,22.60
2017-06-27T09:54:12.660Z,22.40
2017-06-27T09:56:40.963Z,22.30
2017-06-27T09:59:09.292Z,22.30
2017-06-27T10:01:37.559Z,22.40
2017-06-27T10:04:05.846Z,22.50
2017-06-27T10:06:35.128Z,22.30
2017-06-27T10:09:04.200Z,22.40
2017-06-27T10:11:33.243Z,22.50
2017-06-27T10:14:01.567Z,22.50
2017-06-27T10:16:29.848Z,22.50
2017-06-27T10:18:58.137Z,22.60
2017-06-27T10:21:26.464Z,22.60
2017-06-27T10:23:54.737Z,22.70
2017-06-27T10:26:23.019Z,22.60
2017-06-27T10:28:51.521Z,22.40
2017-06-27T10:31:20.567Z,22.40
2017-06-27T10:33:48.847Z,22.40
2017-06-27T10:36:17.429Z,22.30
2017-06-27T10:38:46.475Z,22.30
2017-06-27T10:41:14.748Z,22.30
2017-06-27T10:43:43.065Z,22.30
2017-06-27T10:46:11.349Z,22.40
2017-06-27T10:48:39.635Z,22.40
2017-06-27T10:51:07.940Z,22.60
2017-06-27T10:53:36.228Z,22.80
2017-06-27T10:56:04.505Z,22.90
2017-06-27T10:58:33.005Z,23.10
2017-06-27T11:01:02.048Z,23.50
2017-06-27T11:03:30.321Z,23.50
2017-06-27T11:05:58.632Z,23.50
2017-06-27T11:08:27.011Z,23.60
2017-06-27T11:10:55.291Z,23.60
2017-06-27T11:13:23.612Z,23.50
2017-06-27T11:15:51.880Z,23.60
2017-06-27T11:18:20.172Z,23.40
2017-06-27T11:20:48.584Z,23.50
2017-06-27T11:23:17.624Z,23.90
2017-06-27T11:25:45.908Z,23.80
2017-06-27T11:28:14.612Z,24.00
2017-06-27T11:30:42.905Z,24.00
2017-06-27T11:33:11.176Z,24.00
2017-06-27T11:35:39.511Z,24.10
2017-06-27T11:38:07.792Z,24.00
2017-06-27T11:40:36.064Z,24.20
2017-06-27T11:43:04.568Z,24.10
2017-06-27T11:45:33.617Z,24.20
2017-06-27T11:48:01.896Z,24.20
2017-06-27T11:50:30.396Z,24.20
2017-06-27T11:52:58.681Z,24.10
2017-06-27T11:55:26.960Z,24.10
2017-06-27T11:57:55.276Z,24.10
2017-06-27T12:00:35.520Z,24.20
2017-06-27T12:03:03.945Z,24.30
2017-06-27T12:05:44.045Z,24.50
2017-06-27T12:08:17.295Z,24.40
2017-06-27T12:10:45.568Z,24.50
2017-06-27T12:13:14.680Z,24.30
2017-06-27T12:15:43.084Z,24.30
2017-06-27T12:18:12.128Z,24.90
2017-06-27T12:20:40.412Z,24.90
2017-06-27T12:23:09.492Z,25.90
2017-06-27T12:25:38.536Z,26.00
2017-06-27T12:28:06.815Z,26.00
2017-06-27T12:30:35.148Z,26.20
2017-06-27T12:33:03.436Z,26.70
2017-06-27T12:35:31.724Z,26.60
2017-06-27T12:38:00.813Z,27.00
2017-06-27T12:40:29.100Z,26.90
2017-06-27T12:42:57.384Z,27.40
2017-06-27T12:45:25.703Z,27.70
2017-06-27T12:47:53.987Z,27.70
2017-06-27T12:50:22.276Z,27.60
2017-06-27T12:52:50.617Z,27.60
2017-06-27T12:55:18.908Z,27.60
2017-06-27T12:57:47.187Z,27.60
2017-06-27T13:00:16.271Z,27.70
2017-06-27T13:02:45.328Z,27.60
2017-06-27T13:05:13.609Z,27.60
2017-06-27T13:07:42.097Z,27.70
2017-06-27T13:10:11.140Z,27.80
2017-06-27T13:12:39.432Z,27.70
2017-06-27T13:15:08.508Z,28.00
2017-06-27T13:17:37.556Z,28.00
2017-06-27T13:20:05.845Z,27.90
2017-06-27T13:22:34.923Z,28.60
2017-06-27T13:25:03.973Z,28.80
2017-06-27T13:27:32.260Z,28.70
2017-06-27T13:30:01.436Z,28.60
2017-06-27T13:32:29.725Z,28.50
2017-06-27T13:34:58.007Z,28.50
2017-06-27T13:37:26.331Z,28.40
2017-06-27T13:39:55.384Z,28.30
2017-06-27T13:42:23.666Z,28.20
2017-06-27T13:44:52.094Z,28.60
2017-06-27T13:47:20.403Z,28.90
2017-06-27T13:49:49.460Z,28.80
2017-06-27T13:52:17.957Z,28.80
2017-06-27T13:54:47.000Z,28.50
2017-06-27T13:57:15.288Z,28.50
2017-06-27T13:59:44.444Z,28.90
2017-06-27T14:02:12.716Z,28.80
2017-06-27T14:04:41.004Z,28.80
2017-06-27T14:07:09.332Z,28.60
2017-06-27T14:09:37.615Z,28.50
2017-06-27T14:12:06.664Z,28.60
2017-06-27T14:14:34.977Z,28.60
2017-06-27T14:17:03.257Z,28.50
2017-06-27T14:19:31.537Z,28.70
2017-06-27T14:21:59.876Z,28.80
2017-06-27T14:24:28.170Z,28.60
2017-06-27T14:26:56.472Z,28.80
2017-06-27T14:29:25.553Z,28.50
2017-06-27T14:31:53.857Z,28.50
2017-06-27T14:34:22.139Z,28.60
2017-06-27T14:36:50.477Z,28.70
2017-06-27T14:39:18.768Z,28.50
2017-06-27T14:41:47.051Z,28.70
2017-06-27T14:44:16.344Z,28.20
2017-06-27T14:46:44.644Z,28.10
2017-06-27T14:49:12.928Z,28.40
2017-06-27T14:51:41.247Z,28.70
2017-06-27T14:54:09.544Z,28.20
2017-06-27T14:56:37.836Z,28.10
2017-06-27T14:59:06.940Z,28.40
2017-06-27T15:01:35.223Z,28.30
2017-06-27T15:04:03.508Z,28.50
2017-06-27T15:06:32.735Z,27.90
2017-06-27T15:09:01.776Z,27.60
2017-06-27T15:11:30.985Z,27.40
2017-06-27T15:14:00.055Z,27.50
2017-06-27T15:16:28.339Z,27.40
2017-06-27T15:18:57.481Z,26.90
2017-06-27T15:21:25.772Z,26.90
2017-06-27T15:23:54.832Z,26.20
2017-06-27T15:26:23.143Z,26.10
2017-06-27T15:28:51.436Z,26.00
2017-06-27T15:31:19.712Z,26.10
2017-06-27T15:33:48.041Z,26.10
2017-06-27T15:36:16.324Z,25.80
2017-06-27T15:38:44.604Z,25.80
2017-06-27T15:41:12.928Z,25.80
2017-06-27T15:43:41.199Z,25.70
2017-06-27T15:46:09.480Z,25.70
2017-06-27T15:48:37.811Z,25.60
2017-06-27T15:51:06.093Z,25.40
2017-06-27T15:53:34.372Z,25.40
2017-06-27T15:56:02.691Z,25.50
2017-06-27T15:58:30.975Z,25.40
2017-06-27T16:00:59.251Z,25.60
2017-06-27T16:03:27.583Z,25.70
2017-06-27T16:05:55.879Z,25.60
2017-06-27T16:08:24.156Z,25.30
2017-06-27T16:10:52.473Z,25.10
2017-06-27T16:13:20.763Z,24.90
2017-06-27T16:15:49.041Z,24.60
2017-06-27T16:18:17.368Z,24.50
2017-06-27T16:20:45.652Z,24.30
2017-06-27T16:23:13.929Z,24.30
2017-06-27T16:25:42.244Z,24.10
2017-06-27T16:28:10.527Z,24.10
2017-06-27T16:30:38.800Z,24.10
2017-06-27T16:33:07.135Z,24.10
2017-06-27T16:35:35.408Z,23.90
2017-06-27T16:38:03.684Z,23.70
2017-06-27T16:40:31.992Z,23.70
2017-06-27T16:43:00.282Z,23.70
2017-06-27T16:45:28.556Z,23.60
2017-06-27T16:47:56.880Z,23.50
2017-06-27T16:50:25.160Z,23.40
2017-06-27T16:52:53.765Z,23.40
2017-06-27T16:55:22.084Z,23.40
2017-06-27T16:57:50.362Z,23.30
2017-06-27T17:00:18.635Z,23.30
2017-06-27T17:02:47.139Z,23.30
2017-06-27T17:05:16.188Z,23.20
2017-06-27T17:07:44.640Z,23.20
2017-06-27T17:10:13.159Z,22.90
2017-06-27T17:12:42.328Z,22.80
2017-06-27T17:15:11.367Z,22.90
2017-06-27T17:17:39.680Z,22.80
2017-06-27T17:20:08.719Z,22.60
2017-06-27T17:22:36.997Z,22.60
2017-06-27T17:25:05.296Z,22.60
2017-06-27T17:27:33.572Z,22.70
2017-06-27T17:30:01.868Z,22.70
2017-06-27T17:32:30.179Z,22.70
2017-06-27T17:34:58.448Z,22.70
2017-06-27T17:37:26.736Z,22.60
2017-06-27T17:39:55.355Z,22.60
2017-06-27T17:42:24.396Z,22.40
2017-06-27T17:44:52.680Z,22.40
2017-06-27T17:47:21.009Z,22.30
2017-06-27T17:49:49.293Z,22.20
2017-06-27T17:52:17.578Z,22.10
2017-06-27T17:54:46.872Z,22.00
2017-06-27T17:57:15.943Z,21.90
2017-06-27T17:59:44.988Z,21.70
2017-06-27T18:02:13.296Z,21.60
2017-06-27T18:04:41.576Z,21.60
2017-06-27T18:07:09.857Z,21.60
2017-06-27T18:09:38.280Z,21.60
2017-06-27T18:12:07.320Z,21.40
2017-06-27T18:14:35.596Z,21.40
2017-06-27T18:17:04.077Z,21.30
2017-06-27T18:19:33.130Z,21.40
2017-06-27T18:22:01.408Z,21.40
2017-06-27T18:24:29.744Z,21.40
2017-06-27T18:26:58.016Z,21.40
2017-06-27T18:29:26.291Z,21.40
2017-06-27T18:31:55.394Z,21.20
2017-06-27T18:34:24.432Z,21.30
2017-06-27T18:36:52.705Z,21.20
2017-06-27T18:39:21.308Z,21.20
2017-06-27T18:41:50.348Z,21.20
2017-06-27T18:44:18.616Z,21.20
2017-06-27T18:46:46.948Z,21.20
2017-06-27T18:49:15.232Z,21.20
2017-06-27T18:51:43.609Z,21.20
2017-06-27T18:54:11.920Z,21.20
2017-06-27T18:56:40.201Z,21.20
2017-06-27T18:59:08.478Z,21.10
2017-06-27T19:01:36.800Z,21.10
2017-06-27T19:04:05.100Z,21.00
2017-06-27T19:06:33.375Z,20.90
2017-06-27T19:09:01.857Z,20.90
2017-06-27T19:11:30.899Z,20.80
2017-06-27T19:13:59.176Z,20.80
2017-06-27T19:16:27.600Z,20.90
2017-06-27T19:18:55.887Z,20.80
2017-06-27T19:21:24.163Z,20.80
2017-06-27T19:23:52.560Z,20.80
2017-06-27T19:26:20.841Z,20.80
2017-06-27T19:28:49.124Z,20.70
2017-06-27T19:31:17.644Z,20.70
2017-06-27T19:33:46.688Z,20.70
2017-06-27T19:36:14.977Z,20.60
2017-06-27T19:38:43.440Z,20.70
2017-06-27T19:41:12.492Z,20.60
2017-06-27T19:43:40.767Z,20.50
2017-06-27T19:46:09.153Z,20.60
2017-06-27T19:48:38.184Z,20.50
2017-06-27T19:51:06.455Z,20.50
2017-06-27T19:53:34.768Z,20.50
2017-06-27T19:56:03.051Z,20.50
2017-06-27T19:58:31.328Z,20.40
2017-06-27T20:00:59.635Z,20.20
2017-06-27T20:03:28.681Z,20.20
2017-06-27T20:05:57.096Z,20.20
2017-06-27T20:08:25.420Z,20.10
2017-06-27T20:10:57.688Z,20.00
2017-06-27T20:13:26.776Z,20.00
2017-06-27T20:15:55.820Z,20.00
2017-06-27T20:18:24.105Z,19.90
2017-06-27T20:20:53.209Z,20.00
2017-06-27T20:23:21.525Z,20.00
2017-06-27T20:25:49.813Z,20.10
2017-06-27T20:28:18.918Z,20.00
2017-06-27T20:30:47.192Z,20.00
2017-06-27T20:33:15.468Z,20.10
2017-06-27T20:35:43.989Z,20.00
2017-06-27T20:38:12.353Z,20.00
2017-06-27T20:40:40.632Z,20.00
2017-06-27T20:43:09.080Z,19.80
2017-06-27T20:45:38.132Z,19.70
2017-06-27T20:48:06.503Z,19.70
2017-06-27T20:50:34.836Z,19.70
2017-06-27T20:53:03.149Z,19.70
2017-06-27T20:55:32.180Z,19.80
2017-06-27T20:58:00.511Z,19.80
2017-06-27T21:00:28.788Z,19.80
2017-06-27T21:02:57.077Z,19.70
2017-06-27T21:05:25.380Z,19.60
2017-06-27T21:07:54.424Z,19.40
2017-06-27T21:10:22.720Z,19.30
2017-06-27T21:12:51.907Z,19.30
2017-06-27T21:15:20.950Z,19.30
2017-06-27T21:17:49.220Z,19.20
2017-06-27T21:20:17.805Z,19.20
2017-06-27T21:22:46.847Z,19.40
2017-06-27T21:25:15.140Z,19.30
2017-06-27T21:27:44.433Z,19.50
2017-06-27T21:30:12.720Z,19.40
2017-06-27T21:32:40.999Z,19.50
2017-06-27T21:35:09.332Z,19.30
2017-06-27T21:37:37.607Z,19.30
2017-06-27T21:40:05.896Z,19.20
2017-06-27T21:42:34.221Z,19.20
2017-06-27T21:45:02.520Z,19.10
2017-06-27T21:47:30.793Z,19.10
2017-06-27T21:49:59.141Z,19.00
2017-06-27T21:52:27.420Z,19.00
2017-06-27T21:54:55.716Z,19.10
2017-06-27T21:57:24.183Z,19.10
2017-06-27T21:59:52.461Z,19.20
2017-06-27T22:02:20.743Z,19.20
2017-06-27T22:04:49.293Z,19.20
2017-06-27T22:07:17.571Z,19.00
2017-06-27T22:09:45.898Z,18.80
2017-06-27T22:12:14.964Z,18.70
2017-06-27T22:14:44.026Z,18.70
2017-06-27T22:17:12.293Z,18.70
2017-06-27T22:19:40.836Z,18.70
2017-06-27T22:22:09.100Z,18.70
2017-06-27T22:24:37.372Z,18.60
2017-06-27T22:27:05.859Z,18.50
2017-06-27T22:29:34.900Z,18.70
2017-06-27T22:32:03.176Z,18.60
2017-06-27T22:34:31.484Z,18.70
2017-06-27T22:36:59.763Z,18.70
2017-06-27T22:39:28.036Z,18.60
2017-06-27T22:41:56.364Z,18.50
2017-06-27T22:44:24.681Z,18.40
2017-06-27T22:46:52.967Z,18.40
2017-06-27T22:49:22.068Z,18.40
2017-06-27T22:51:51.120Z,18.40
2017-06-27T22:54:19.401Z,18.30
2017-06-27T22:56:48.481Z,18.40
2017-06-27T22:59:16.777Z,18.30
2017-06-27T23:01:45.054Z,18.40
2017-06-27T23:04:13.360Z,18.40
2017-06-27T23:06:42.403Z,18.30
2017-06-27T23:09:10.912Z,18.30
2017-06-27T23:11:40.015Z,18.30
2017-06-27T23:14:08.289Z,18.30
2017-06-27T23:16:36.563Z,18.40
2017-06-27T23:19:04.876Z,18.40
2017-06-27T23:21:33.924Z,18.50
2017-06-27T23:24:02.317Z,18.50
2017-06-27T23:26:31.403Z,18.60
2017-06-27T23:29:00.444Z,18.60
2017-06-27T23:31:28.729Z,18.50
2017-06-27T23:33:57.868Z,18.70
2017-06-27T23:36:26.149Z,18.60
2017-06-27T23:38:54.431Z,18.70
2017-06-27T23:41:23.513Z,18.80
2017-06-27T23:43:52.557Z,18.80
2017-06-27T23:46:20.849Z,18.70
2017-06-27T23:48:49.952Z,18.70
2017-06-27T23:51:18.224Z,18.70
2017-06-27T23:53:46.508Z,18.80
2017-06-27T23:56:14.810Z,18.80
2017-06-27T23:58:43.084Z,18.70
